Time;durP1;ratioP1;P1;durP2;ratioP2;P2;SDS_P1;SDS_P2;PMS_P1;PMS_P2;Temp;Humidity;BMP_temperature;BMP_pressure;BME280_temperature;BME280_humidity;BME280_pressure;Samples;Min_cycle;Max_cycle;Signal;HPM_P1;HPM_P2
2024/04/13 00:01:41;;;;;;;15.90;4.03;;;14.90;99.90;;;;;;5420640;26;20301;-86
2024/04/13 00:04:08;;;;;;;21.07;4.03;;;14.90;99.90;;;;;;5447052;26;20229;-86
2024/04/13 00:06:34;;;;;;;15.90;3.67;;;14.90;99.90;;;;;;5420646;26;20261;-86
2024/04/13 00:08:59;;;;;;;18.47;4.00;;;14.80;99.90;;;;;;5420555;26;20450;-87
2024/04/13 00:11:25;;;;;;;22.43;4.03;;;14.80;99.90;;;;;;5449518;26;20459;-86
2024/04/13 00:13:52;;;;;;;15.53;3.60;;;14.80;99.90;;;;;;5420451;26;20322;-86
2024/04/13 00:16:17;;;;;;;18.10;4.10;;;14.90;99.90;;;;;;5421154;26;20327;-86
2024/04/13 00:18:43;;;;;;;18.80;3.80;;;14.80;99.90;;;;;;5421331;26;20444;-86
2024/04/13 00:21:09;;;;;;;19.93;4.80;;;14.80;99.90;;;;;;5420664;26;20311;-86
2024/04/13 00:23:35;;;;;;;15.63;3.67;;;14.70;99.90;;;;;;5421665;26;20210;-86
2024/04/13 00:26:01;;;;;;;18.00;4.10;;;14.70;99.90;;;;;;5420498;26;20220;-86
2024/04/13 00:28:27;;;;;;;18.80;3.93;;;14.70;99.90;;;;;;5417536;26;20451;-86
2024/04/13 00:30:53;;;;;;;16.03;4.10;;;14.70;99.90;;;;;;5421172;26;20494;-86
2024/04/13 00:33:19;;;;;;;17.50;4.20;;;14.70;99.90;;;;;;5419998;26;20224;-86
2024/04/13 00:35:45;;;;;;;17.40;4.60;;;14.70;99.90;;;;;;5449120;26;20455;-86
2024/04/13 00:38:13;;;;;;;23.20;4.70;;;14.80;99.90;;;;;;5420168;26;20212;-86
2024/04/13 00:40:40;;;;;;;15.80;4.30;;;14.70;99.90;;;;;;5540204;20;20318;-85
2024/04/13 00:43:13;;;;;;;20.07;3.73;;;14.60;99.90;;;;;;5496134;26;20979;-85
2024/04/13 00:45:45;;;;;;;17.43;4.00;;;14.60;99.90;;;;;;5528382;26;20774;-85
2024/04/13 00:48:24;;;;;;;18.90;4.10;;;14.70;99.90;;;;;;5528789;26;20511;-85
2024/04/13 00:50:58;;;;;;;18.57;4.13;;;14.70;99.90;;;;;;5528429;26;20429;-85
2024/04/13 00:53:25;;;;;;;18.70;4.03;;;14.60;99.90;;;;;;5528126;26;20912;-85
2024/04/13 00:55:53;;;;;;;18.67;3.83;;;14.60;99.90;;;;;;5528304;26;20427;-85
2024/04/13 00:58:26;;;;;;;18.57;4.20;;;14.60;99.90;;;;;;5495720;26;20440;-85
2024/04/13 01:00:52;;;;;;;16.67;4.00;;;14.60;99.90;;;;;;5527983;26;21085;-85
2024/04/13 01:03:20;;;;;;;16.37;4.00;;;14.50;99.90;;;;;;5527886;26;21047;-85
2024/04/13 01:05:48;;;;;;;17.50;4.33;;;14.40;99.90;;;;;;5527993;26;20433;-85
2024/04/13 01:08:14;;;;;;;19.37;4.60;;;14.30;99.90;;;;;;5527629;26;20521;-85
2024/04/13 01:10:41;;;;;;;18.13;4.00;;;14.30;99.90;;;;;;5527987;26;20434;-85
2024/04/13 01:13:08;;;;;;;15.27;3.80;;;14.30;99.90;;;;;;5527777;26;20801;-85
2024/04/13 01:15:36;;;;;;;25.93;4.13;;;14.30;99.90;;;;;;5528259;26;20488;-83
2024/04/13 01:18:05;;;;;;;16.13;4.23;;;14.30;99.90;;;;;;5528561;26;21094;-83
2024/04/13 01:20:33;;;;;;;19.53;4.63;;;14.30;99.90;;;;;;5528775;26;20438;-83
2024/04/13 01:23:00;;;;;;;17.80;4.07;;;14.30;99.90;;;;;;5529251;26;20450;-83
2024/04/13 01:25:25;;;;;;;17.07;4.20;;;14.30;99.90;;;;;;5529175;26;20440;-83
2024/04/13 01:27:51;;;;;;;15.70;3.73;;;14.20;99.90;;;;;;5528417;26;20438;-83
2024/04/13 01:30:18;;;;;;;20.80;4.07;;;14.20;99.90;;;;;;5528428;26;20248;-82
2024/04/13 01:32:44;;;;;;;18.30;3.93;;;14.20;99.90;;;;;;5528073;26;20296;-83
2024/04/13 01:35:13;;;;;;;19.70;4.43;;;14.20;99.90;;;;;;5528621;26;21032;-83
2024/04/13 01:37:40;;;;;;;17.30;4.10;;;14.20;99.90;;;;;;5528593;26;20433;-85
2024/04/13 01:40:07;;;;;;;16.70;4.10;;;14.20;99.90;;;;;;6034349;20;20486;-85
2024/04/13 01:42:34;;;;;;;18.60;3.93;;;14.20;99.90;;;;;;5483679;26;20618;-85
2024/04/13 01:44:59;;;;;;;19.30;4.40;;;14.30;99.90;;;;;;5483952;26;20830;-85
2024/04/13 01:47:25;;;;;;;18.63;3.73;;;14.30;99.90;;;;;;5482052;26;20547;-85
2024/04/13 01:49:51;;;;;;;17.70;3.87;;;14.30;99.90;;;;;;5483510;26;20304;-85
2024/04/13 01:52:16;;;;;;;17.10;4.00;;;14.30;99.90;;;;;;5483493;26;20212;-85
2024/04/13 01:54:42;;;;;;;19.33;3.83;;;14.30;99.90;;;;;;5604778;20;20258;-86
2024/04/13 01:57:07;;;;;;;16.53;3.93;;;14.40;99.90;;;;;;5506040;26;20241;-86
2024/04/13 01:59:33;;;;;;;17.30;4.17;;;14.40;99.90;;;;;;5505626;26;20207;-86
2024/04/13 02:01:59;;;;;;;16.57;4.50;;;14.40;99.90;;;;;;5504840;26;20316;-86
2024/04/13 02:04:25;;;;;;;18.80;5.23;;;14.40;99.90;;;;;;5506103;26;20206;-86
2024/04/13 02:06:51;;;;;;;15.53;3.80;;;14.40;99.90;;;;;;5506544;26;20210;-86
2024/04/13 02:09:18;;;;;;;21.97;4.00;;;14.40;99.90;;;;;;5472244;26;20566;-86
2024/04/13 02:11:45;;;;;;;19.23;3.97;;;14.40;99.90;;;;;;5506874;26;20217;-86
2024/04/13 02:14:11;;;;;;;18.37;4.57;;;14.40;99.90;;;;;;5506188;26;20432;-86
2024/04/13 02:16:37;;;;;;;16.63;3.63;;;14.40;99.90;;;;;;5506488;26;20522;-86
2024/04/13 02:19:04;;;;;;;16.73;3.67;;;14.40;99.90;;;;;;5473792;26;20851;-86
2024/04/13 02:21:31;;;;;;;17.10;4.67;;;14.40;99.90;;;;;;5473965;26;21034;-86
2024/04/13 02:23:56;;;;;;;16.23;3.93;;;14.40;99.90;;;;;;5504934;26;20921;-86
2024/04/13 02:26:22;;;;;;;18.73;3.97;;;14.40;99.90;;;;;;5474232;26;20439;-86
2024/04/13 02:28:48;;;;;;;16.27;3.27;;;14.30;99.90;;;;;;5506378;26;20219;-86
2024/04/13 02:31:13;;;;;;;16.97;3.73;;;14.40;99.90;;;;;;5506142;26;20286;-86
2024/04/13 02:33:39;;;;;;;16.87;4.07;;;14.30;99.90;;;;;;5473414;26;20250;-85
2024/04/13 02:36:05;;;;;;;17.60;4.03;;;14.40;99.90;;;;;;5504649;26;20257;-86
2024/04/13 02:38:35;;;;;;;26.20;4.07;;;14.40;99.90;;;;;;5473486;26;20755;-85
2024/04/13 02:41:01;;;;;;;19.43;4.00;;;14.40;99.90;;;;;;5504622;26;20461;-86
2024/04/13 02:43:31;;;;;;;18.60;3.37;;;14.40;99.90;;;;;;5473154;26;20442;-86
2024/04/13 02:46:08;;;;;;;17.43;3.80;;;14.40;99.90;;;;;;5505088;26;20884;-87
2024/04/13 02:48:37;;;;;;;19.17;3.90;;;14.30;99.90;;;;;;5505076;26;20415;-86
2024/04/13 02:51:04;;;;;;;17.27;4.23;;;14.30;99.90;;;;;;5472360;26;20546;-86
2024/04/13 02:53:29;;;;;;;17.13;3.60;;;14.30;99.90;;;;;;5474028;26;20549;-86
2024/04/13 02:55:55;;;;;;;16.50;3.37;;;14.20;99.90;;;;;;5505890;26;20457;-86
2024/04/13 02:58:20;;;;;;;18.50;4.10;;;14.20;99.90;;;;;;5473191;26;20263;-86
2024/04/13 03:00:57;;;;;;;18.73;3.80;;;14.20;99.90;;;;;;5504986;26;20695;-86
2024/04/13 03:03:23;;;;;;;17.20;4.20;;;14.30;99.90;;;;;;5473708;26;20209;-86
2024/04/13 03:06:11;;;;;;;16.40;3.63;;;14.30;99.90;;;;;;5504472;26;20570;-86
2024/04/13 03:08:38;;;;;;;17.20;4.30;;;14.20;99.90;;;;;;5504700;26;20426;-86
2024/04/13 03:11:04;;;;;;;18.67;4.47;;;14.10;99.90;;;;;;5504818;26;20524;-86
2024/04/13 03:13:30;;;;;;;15.90;3.70;;;14.10;99.90;;;;;;5505034;26;20550;-86
2024/04/13 03:16:04;;;;;;;16.10;3.70;;;14.10;99.90;;;;;;5504426;26;20494;-86
2024/04/13 03:18:31;;;;;;;17.00;3.97;;;14.10;99.90;;;;;;5473073;26;20442;-86
2024/04/13 03:20:57;;;;;;;16.50;3.90;;;14.00;99.90;;;;;;5504506;26;21047;-85
2024/04/13 03:23:23;;;;;;;18.20;4.57;;;14.00;99.90;;;;;;5471996;26;20496;-86
2024/04/13 03:25:52;;;;;;;18.30;3.70;;;13.90;99.90;;;;;;5504739;26;20556;-86
2024/04/13 03:28:24;;;;;;;17.10;3.50;;;13.90;99.90;;;;;;5505102;26;20434;-86
2024/04/13 03:30:50;;;;;;;20.23;4.90;;;13.90;99.90;;;;;;5505656;26;20466;-86
2024/04/13 03:33:16;;;;;;;17.30;3.67;;;13.80;99.90;;;;;;5505219;26;20507;-86
2024/04/13 03:35:41;;;;;;;16.60;3.87;;;13.80;99.90;;;;;;5504856;26;20216;-86
2024/04/13 03:38:07;;;;;;;16.27;3.87;;;13.90;99.90;;;;;;5472628;26;20455;-86
2024/04/13 03:40:36;;;;;;;15.67;3.53;;;13.80;99.90;;;;;;5504402;26;20222;-86
2024/04/13 03:43:03;;;;;;;16.87;4.03;;;13.80;99.90;;;;;;5504276;26;20220;-85
2024/04/13 03:45:28;;;;;;;17.27;3.37;;;13.80;99.90;;;;;;5504972;26;20872;-85
2024/04/13 03:47:55;;;;;;;19.57;4.53;;;13.70;99.90;;;;;;5505057;26;20434;-86
2024/04/13 03:50:21;;;;;;;17.23;4.47;;;13.80;99.90;;;;;;5504436;26;20689;-85
2024/04/13 03:52:47;;;;;;;18.87;4.00;;;13.70;99.90;;;;;;5504609;26;20437;-85
2024/04/13 03:55:12;;;;;;;17.00;4.00;;;13.70;99.90;;;;;;5504553;26;20496;-86
2024/04/13 03:57:38;;;;;;;19.93;4.83;;;13.60;99.90;;;;;;5504060;26;20724;-86
2024/04/13 04:00:06;;;;;;;18.23;3.87;;;13.60;99.90;;;;;;5504849;26;20251;-85
2024/04/13 04:02:33;;;;;;;20.17;4.17;;;13.60;99.90;;;;;;5472828;26;20212;-86
2024/04/13 04:04:58;;;;;;;19.30;4.30;;;13.60;99.90;;;;;;5472946;26;20433;-86
2024/04/13 04:07:24;;;;;;;19.10;4.03;;;13.60;99.90;;;;;;5505145;26;20437;-86
2024/04/13 04:09:50;;;;;;;16.47;3.80;;;13.50;99.90;;;;;;5504277;26;20219;-85
2024/04/13 04:12:15;;;;;;;19.50;4.80;;;13.50;99.90;;;;;;5472102;26;20213;-86
2024/04/13 04:14:41;;;;;;;16.37;4.20;;;13.50;99.90;;;;;;5504173;26;20251;-86
2024/04/13 04:17:07;;;;;;;16.97;3.90;;;13.50;99.90;;;;;;5503541;26;20252;-85
2024/04/13 04:19:32;;;;;;;16.80;4.23;;;13.50;99.90;;;;;;5503916;26;20204;-85
2024/04/13 04:21:58;;;;;;;18.97;4.80;;;13.50;99.90;;;;;;5503594;26;20716;-85
2024/04/13 04:24:24;;;;;;;15.87;3.97;;;13.50;99.90;;;;;;5504586;26;20439;-86
2024/04/13 04:26:50;;;;;;;17.47;5.20;;;13.40;99.90;;;;;;5472770;26;20221;-87
2024/04/13 04:29:15;;;;;;;15.97;4.63;;;13.40;99.90;;;;;;5504341;26;20268;-86
2024/04/13 04:31:42;;;;;;;16.47;3.50;;;13.30;99.90;;;;;;5504679;26;20645;-86
2024/04/13 04:34:09;;;;;;;19.20;4.97;;;13.40;99.90;;;;;;5504951;26;20433;-86
2024/04/13 04:36:35;;;;;;;16.30;4.10;;;13.30;99.90;;;;;;5504370;26;20275;-86
2024/04/13 04:39:01;;;;;;;16.30;3.90;;;13.30;99.90;;;;;;5504068;26;20438;-86
2024/04/13 04:41:27;;;;;;;20.23;4.50;;;13.30;99.90;;;;;;5472376;26;20569;-86
2024/04/13 04:43:53;;;;;;;16.53;4.60;;;13.30;99.90;;;;;;5503985;26;20445;-86
2024/04/13 04:46:20;;;;;;;17.10;4.10;;;13.30;99.90;;;;;;5503987;26;20530;-85
2024/04/13 04:48:49;;;;;;;18.93;5.23;;;13.30;99.90;;;;;;5504139;26;20429;-86
2024/04/13 04:51:15;;;;;;;25.63;4.40;;;13.30;99.90;;;;;;5504518;26;20535;-86
2024/04/13 04:53:41;;;;;;;17.50;3.87;;;13.30;99.90;;;;;;5503843;26;20437;-86
2024/04/13 04:56:07;;;;;;;16.90;4.63;;;13.30;99.90;;;;;;5503971;26;20503;-86
2024/04/13 04:58:33;;;;;;;19.00;4.67;;;13.20;99.90;;;;;;5503232;26;20430;-86
2024/04/13 05:00:58;;;;;;;18.57;4.80;;;13.20;99.90;;;;;;5502489;26;20220;-86
2024/04/13 05:03:24;;;;;;;17.63;4.43;;;13.20;99.90;;;;;;5504000;26;20480;-85
2024/04/13 05:05:51;;;;;;;20.70;4.80;;;13.20;99.90;;;;;;5502783;26;20254;-86
2024/04/13 05:08:17;;;;;;;16.17;4.10;;;13.20;99.90;;;;;;5469816;26;20485;-85
2024/04/13 05:10:43;;;;;;;24.20;4.73;;;13.20;99.90;;;;;;5503075;26;20469;-86
2024/04/13 05:13:08;;;;;;;18.73;4.80;;;13.20;99.90;;;;;;5471443;26;20505;-86
2024/04/13 05:15:35;;;;;;;18.10;4.20;;;13.20;99.90;;;;;;5505776;26;20205;-85
2024/04/13 05:18:03;;;;;;;19.73;4.53;;;13.20;99.90;;;;;;5506236;26;20743;-86
2024/04/13 05:20:28;;;;;;;21.20;5.73;;;13.20;99.90;;;;;;5505188;26;20446;-85
2024/04/13 05:22:54;;;;;;;24.43;5.47;;;13.30;99.90;;;;;;5505897;26;20425;-85
2024/04/13 05:25:20;;;;;;;18.77;4.40;;;13.20;99.90;;;;;;5506296;26;20208;-85
2024/04/13 05:27:46;;;;;;;20.03;5.30;;;13.10;99.90;;;;;;5505480;26;20433;-85
2024/04/13 05:30:12;;;;;;;17.90;5.60;;;13.20;99.90;;;;;;5505055;26;20540;-85
2024/04/13 05:32:38;;;;;;;21.20;5.23;;;13.20;99.90;;;;;;5504732;26;20205;-85
2024/04/13 05:35:03;;;;;;;17.93;5.20;;;13.30;99.90;;;;;;5503905;26;20472;-85
2024/04/13 05:37:29;;;;;;;20.47;4.83;;;13.30;99.90;;;;;;5504754;26;20204;-85
2024/04/13 05:39:55;;;;;;;20.97;5.70;;;13.40;99.90;;;;;;5472122;26;20226;-85
2024/04/13 05:42:20;;;;;;;22.50;6.17;;;13.50;99.90;;;;;;5472789;26;20216;-85
2024/04/13 05:44:46;;;;;;;19.83;5.70;;;13.50;99.90;;;;;;5504594;26;20548;-85
2024/04/13 05:47:12;;;;;;;20.97;6.87;;;13.60;99.90;;;;;;5504998;26;20204;-85
2024/04/13 05:49:38;;;;;;;19.27;4.60;;;13.60;99.90;;;;;;5505089;26;20418;-85
2024/04/13 05:52:04;;;;;;;28.73;5.97;;;13.60;99.90;;;;;;5504107;26;20205;-86
2024/04/13 05:54:30;;;;;;;25.07;5.47;;;13.70;99.90;;;;;;5505604;26;20898;-85
2024/04/13 05:56:57;;;;;;;18.60;4.60;;;13.70;99.90;;;;;;5504712;26;20977;-85
2024/04/13 05:59:22;;;;;;;23.57;6.50;;;13.80;99.90;;;;;;5504979;26;20426;-85
2024/04/13 06:01:48;;;;;;;22.23;6.30;;;13.80;99.90;;;;;;5504935;26;21079;-84
2024/04/13 06:04:14;;;;;;;25.67;6.10;;;13.80;99.90;;;;;;5504886;26;20205;-85
2024/04/13 06:06:41;;;;;;;19.40;6.47;;;13.90;99.90;;;;;;5504899;26;20653;-85
2024/04/13 06:09:07;;;;;;;27.03;5.77;;;13.90;99.90;;;;;;5504193;26;20285;-85
2024/04/13 06:11:33;;;;;;;25.50;5.80;;;14.00;99.90;;;;;;5504894;26;20815;-85
2024/04/13 06:13:59;;;;;;;19.20;5.30;;;14.10;99.90;;;;;;5505870;26;20789;-85
2024/04/13 06:16:24;;;;;;;20.33;6.63;;;14.10;99.90;;;;;;5473532;26;20445;-85
2024/04/13 06:18:51;;;;;;;18.10;5.30;;;14.20;99.90;;;;;;5505206;26;20252;-85
2024/04/13 06:21:16;;;;;;;17.90;4.50;;;14.20;99.90;;;;;;5505081;26;20255;-85
2024/04/13 06:23:42;;;;;;;22.00;4.70;;;14.30;99.90;;;;;;5472784;26;20442;-85
2024/04/13 06:26:08;;;;;;;17.63;4.70;;;14.40;99.90;;;;;;5503762;26;20213;-85
2024/04/13 06:28:33;;;;;;;19.20;4.90;;;14.40;99.90;;;;;;5505448;26;20205;-85
2024/04/13 06:30:59;;;;;;;18.43;5.17;;;14.50;99.90;;;;;;5504757;26;20276;-85
2024/04/13 06:33:25;;;;;;;19.90;6.27;;;14.60;99.90;;;;;;5504448;26;20278;-85
2024/04/13 06:35:50;;;;;;;19.73;5.30;;;14.70;99.90;;;;;;5472327;26;20216;-85
2024/04/13 06:38:23;;;;;;;17.80;5.10;;;14.80;99.90;;;;;;5473160;26;20214;-85
2024/04/13 06:40:52;;;;;;;18.47;5.20;;;14.90;99.90;;;;;;5504476;26;20552;-85
2024/04/13 06:43:19;;;;;;;19.60;4.90;;;14.90;99.90;;;;;;5504731;26;20964;-85
2024/04/13 06:45:48;;;;;;;20.57;5.00;;;15.00;99.90;;;;;;5504651;26;20486;-85
2024/04/13 06:48:14;;;;;;;18.13;4.60;;;15.20;99.90;;;;;;5472352;26;20495;-85
2024/04/13 06:50:41;;;;;;;18.50;4.67;;;15.30;99.90;;;;;;5504439;26;20451;-84
2024/04/13 06:53:07;;;;;;;19.93;5.50;;;15.40;99.90;;;;;;5503705;26;20425;-85
2024/04/13 06:55:33;;;;;;;22.83;5.70;;;15.40;99.90;;;;;;5503570;26;20446;-84
2024/04/13 06:57:59;;;;;;;18.03;4.43;;;15.40;99.90;;;;;;5503022;26;20262;-85
2024/04/13 07:00:25;;;;;;;19.00;5.20;;;15.50;99.90;;;;;;5471867;26;20507;-85
2024/04/13 07:02:50;;;;;;;22.80;5.63;;;15.60;99.90;;;;;;5472128;26;20209;-85
2024/04/13 07:05:16;;;;;;;17.90;5.30;;;15.70;99.90;;;;;;5504868;26;20483;-84
2024/04/13 07:07:42;;;;;;;18.30;4.90;;;15.70;99.90;;;;;;5504417;26;20210;-85
2024/04/13 07:10:08;;;;;;;19.00;5.00;;;15.80;99.90;;;;;;5502965;26;20448;-84
2024/04/13 07:12:34;;;;;;;22.50;4.90;;;15.90;99.90;;;;;;5471175;26;20218;-84
2024/04/13 07:14:59;;;;;;;19.50;5.67;;;15.90;99.90;;;;;;5502291;26;20427;-85
2024/04/13 07:17:25;;;;;;;16.90;4.87;;;16.00;99.90;;;;;;5504844;26;20324;-85
2024/04/13 07:19:51;;;;;;;15.90;3.93;;;16.00;99.90;;;;;;5503353;26;20227;-84
2024/04/13 07:22:17;;;;;;;19.57;5.00;;;16.00;99.90;;;;;;5503716;26;20261;-84
2024/04/13 07:24:43;;;;;;;19.10;5.40;;;16.10;99.90;;;;;;5471293;26;20219;-84
2024/04/13 07:27:09;;;;;;;18.63;5.33;;;16.10;99.90;;;;;;5503739;26;20487;-84
2024/04/13 07:29:35;;;;;;;17.97;4.90;;;16.20;99.90;;;;;;5470393;26;20486;-84
2024/04/13 07:32:01;;;;;;;22.70;4.83;;;16.20;99.90;;;;;;5503815;26;20428;-83
2024/04/13 07:34:26;;;;;;;17.40;4.83;;;16.40;99.90;;;;;;5502840;26;20207;-84
2024/04/13 07:36:52;;;;;;;18.70;5.70;;;16.40;99.90;;;;;;5469570;26;20241;-83
2024/04/13 07:39:17;;;;;;;22.00;5.00;;;16.50;99.90;;;;;;5502566;26;20216;-84
2024/04/13 07:41:43;;;;;;;18.47;5.37;;;16.60;99.90;;;;;;5502819;26;20216;-84
2024/04/13 07:44:09;;;;;;;20.40;4.87;;;16.80;99.90;;;;;;5502995;26;20546;-85
2024/04/13 07:46:35;;;;;;;16.53;4.40;;;16.90;99.90;;;;;;5502967;26;20281;-84
2024/04/13 07:49:00;;;;;;;16.23;3.97;;;17.00;99.90;;;;;;5502860;26;20437;-84
2024/04/13 07:51:26;;;;;;;17.50;4.37;;;17.10;99.90;;;;;;5503087;26;20216;-85
2024/04/13 07:53:52;;;;;;;19.07;4.07;;;17.20;99.90;;;;;;5502984;26;20292;-85
2024/04/13 07:56:17;;;;;;;17.60;4.43;;;17.30;99.90;;;;;;5471034;26;20250;-85
2024/04/13 07:58:43;;;;;;;16.43;3.87;;;17.30;99.90;;;;;;5502949;26;20211;-85
2024/04/13 08:01:09;;;;;;;18.43;4.30;;;17.40;99.90;;;;;;5503212;26;20243;-85
2024/04/13 08:03:36;;;;;;;18.30;4.80;;;17.40;99.90;;;;;;5505016;26;20250;-84
2024/04/13 08:06:04;;;;;;;20.67;5.03;;;17.50;99.90;;;;;;5502936;26;20803;-85
2024/04/13 08:08:30;;;;;;;17.17;4.03;;;17.60;99.90;;;;;;5467417;26;20499;-85
2024/04/13 08:10:55;;;;;;;17.60;4.10;;;17.60;99.90;;;;;;5466648;26;20996;-85
2024/04/13 08:13:21;;;;;;;19.27;4.20;;;17.80;99.90;;;;;;5499033;26;20212;-85
2024/04/13 08:15:47;;;;;;;15.70;4.17;;;17.80;99.90;;;;;;5466435;26;20289;-84
2024/04/13 08:18:14;;;;;;;19.57;4.70;;;17.90;99.90;;;;;;5499041;26;20212;-84
2024/04/13 08:20:39;;;;;;;18.20;5.53;;;18.10;99.90;;;;;;5472382;26;20704;-84
2024/04/13 08:23:05;;;;;;;16.93;4.60;;;18.10;99.90;;;;;;5503240;26;20434;-85
2024/04/13 08:25:32;;;;;;;19.47;4.33;;;18.20;99.90;;;;;;5502847;26;20225;-84
2024/04/13 08:27:57;;;;;;;20.13;4.87;;;18.30;99.90;;;;;;5470269;26;20243;-85
2024/04/13 08:30:23;;;;;;;19.00;4.17;;;18.40;99.90;;;;;;5502632;26;20977;-84
2024/04/13 08:32:49;;;;;;;18.03;4.00;;;18.50;99.90;;;;;;5503655;26;20614;-84
2024/04/13 08:35:15;;;;;;;17.03;4.10;;;18.60;99.90;;;;;;5503257;26;20205;-84
2024/04/13 08:37:41;;;;;;;16.60;4.30;;;18.80;97.50;;;;;;5503435;26;20220;-85
2024/04/13 08:40:11;;;;;;;16.70;3.97;;;18.90;90.50;;;;;;5471045;26;20461;-84
2024/04/13 08:42:40;;;;;;;16.40;4.07;;;19.00;90.50;;;;;;5471197;26;20445;-85
2024/04/13 08:45:10;;;;;;;16.40;3.60;;;19.00;88.30;;;;;;5503200;26;20430;-85
2024/04/13 08:47:38;;;;;;;19.90;3.83;;;19.10;81.30;;;;;;5470353;26;20443;-84
2024/04/13 08:50:06;;;;;;;15.77;3.37;;;19.20;70.10;;;;;;5465157;26;20469;-85
2024/04/13 08:52:32;;;;;;;16.13;3.37;;;19.30;56.60;;;;;;5495621;26;21016;-85
2024/04/13 08:54:58;;;;;;;18.97;3.30;;;19.20;28.00;;;;;;5494484;26;20456;-84
2024/04/13 08:57:25;;;;;;;19.83;3.70;;;19.20;33.00;;;;;;5494366;26;20439;-86
2024/04/13 08:59:52;;;;;;;15.00;2.77;;;19.20;22.20;;;;;;5462682;26;20231;-86
2024/04/13 09:02:22;;;;;;;21.30;4.30;;;19.20;25.70;;;;;;5461978;26;20421;-86
2024/04/13 09:04:52;;;;;;;22.13;4.30;;;19.30;24.40;;;;;;5497375;26;20680;-86
2024/04/13 09:07:21;;;;;;;16.43;3.33;;;19.50;27.10;;;;;;5467474;26;20494;-85
2024/04/13 09:09:48;;;;;;;17.15;3.80;;;19.60;33.60;;;;;;5500556;26;20358;-85
2024/04/13 09:12:14;;;;;;;17.23;3.10;;;19.70;21.50;;;;;;5497803;26;20229;-86
2024/04/13 09:14:40;;;;;;;17.30;4.27;;;19.80;15.80;;;;;;5494691;26;20826;-85
2024/04/13 09:17:07;;;;;;;23.30;3.77;;;19.90;3.10;;;;;;5463922;26;20449;-86
2024/04/13 09:19:32;;;;;;;16.50;3.00;;;20.00;9.90;;;;;;5462792;26;20509;-85
2024/04/13 09:21:58;;;;;;;18.00;3.93;;;20.10;1.00;;;;;;5494098;26;20490;-86
2024/04/13 09:24:24;;;;;;;14.57;2.97;;;20.20;1.00;;;;;;5494491;26;20208;-86
2024/04/13 09:26:51;;;;;;;17.43;3.00;;;20.30;1.00;;;;;;5494173;26;20250;-85
2024/04/13 09:29:29;;;;;;;17.23;3.20;;;20.40;1.00;;;;;;5495166;26;20550;-86
2024/04/13 09:31:54;;;;;;;18.93;3.30;;;20.40;1.00;;;;;;5496369;26;20512;-86
2024/04/13 09:34:20;;;;;;;14.97;3.20;;;20.50;1.00;;;;;;5464244;26;20501;-86
2024/04/13 09:36:49;;;;;;;14.30;2.57;;;20.70;1.00;;;;;;5463668;26;20312;-86
2024/04/13 09:39:22;;;;;;;17.10;2.57;;;20.70;1.00;;;;;;5462216;26;20256;-87
2024/04/13 09:41:51;;;;;;;14.60;2.70;;;20.90;1.00;;;;;;5493977;26;20450;-86
2024/04/13 09:44:27;;;;;;;17.60;2.50;;;21.00;1.00;;;;;;5489737;26;20429;-87
2024/04/13 09:46:53;;;;;;;15.80;2.70;;;21.10;1.00;;;;;;5457553;26;20437;-86
2024/04/13 09:49:19;;;;;;;14.07;2.40;;;21.20;1.00;;;;;;5489858;26;20522;-87
2024/04/13 09:51:52;;;;;;;18.47;2.50;;;21.30;1.00;;;;;;5490560;26;20747;-86
2024/04/13 09:54:18;;;;;;;15.60;2.60;;;21.40;1.00;;;;;;5458688;26;20489;-86
2024/04/13 09:56:46;;;;;;;15.10;2.30;;;21.40;1.00;;;;;;5496578;26;20394;-87
2024/04/13 09:59:20;;;;;;;18.07;2.53;;;21.20;1.00;;;;;;5465879;26;20522;-86
2024/04/13 10:01:47;;;;;;;17.60;2.53;;;21.20;1.00;;;;;;5501598;26;20460;-86
2024/04/13 10:04:13;;;;;;;17.77;3.60;;;21.20;1.00;;;;;;5499391;26;20498;-86
2024/04/13 10:06:40;;;;;;;13.97;2.50;;;21.10;1.00;;;;;;5499179;26;20980;-87
2024/04/13 10:09:11;;;;;;;16.13;2.70;;;21.10;1.00;;;;;;5498426;26;21066;-86
2024/04/13 10:11:43;;;;;;;17.73;2.80;;;21.10;1.00;;;;;;5501473;26;20489;-85
2024/04/13 10:14:10;;;;;;;18.43;3.10;;;21.30;1.00;;;;;;5466616;26;20441;-85
2024/04/13 10:16:42;;;;;;;15.00;2.80;;;21.50;1.00;;;;;;5497920;26;20438;-86
2024/04/13 10:19:14;;;;;;;16.47;2.73;;;21.70;1.00;;;;;;5466465;26;21016;-86
2024/04/13 10:21:40;;;;;;;14.70;2.47;;;21.50;1.00;;;;;;5497367;26;20449;-86
2024/04/13 10:24:14;;;;;;;17.10;3.17;;;21.60;1.00;;;;;;5497209;26;20541;-86
2024/04/13 10:26:40;;;;;;;18.57;2.30;;;21.60;1.00;;;;;;5496906;26;20203;-87
2024/04/13 10:29:05;;;;;;;17.93;3.10;;;21.70;1.00;;;;;;5464467;26;20762;-85
2024/04/13 10:31:31;;;;;;;17.00;2.40;;;21.90;1.00;;;;;;5466186;26;20874;-85
2024/04/13 10:33:58;;;;;;;14.20;1.90;;;22.00;1.00;;;;;;5497639;26;20762;-87
2024/04/13 10:36:37;;;;;;;14.77;2.67;;;22.00;1.00;;;;;;5498225;26;20199;-87
2024/04/13 10:39:04;;;;;;;15.20;1.90;;;22.10;1.00;;;;;;5465188;26;20495;-87
2024/04/13 10:41:31;;;;;;;15.90;1.93;;;22.20;1.00;;;;;;5499620;26;20517;-87
2024/04/13 10:43:58;;;;;;;15.50;2.33;;;22.40;1.00;;;;;;5499083;26;20433;-86
2024/04/13 10:46:24;;;;;;;17.23;2.40;;;22.60;1.00;;;;;;5467200;26;20453;-87
2024/04/13 10:48:52;;;;;;;13.30;1.73;;;22.80;1.00;;;;;;5502656;26;20486;-86
2024/04/13 10:51:19;;;;;;;13.17;1.87;;;23.00;1.00;;;;;;5498288;26;20559;-86
2024/04/13 10:53:45;;;;;;;15.33;2.47;;;23.30;1.00;;;;;;5467520;26;20461;-87
2024/04/13 10:56:11;;;;;;;15.37;2.13;;;23.20;1.00;;;;;;5467662;26;20535;-87
2024/04/13 10:58:38;;;;;;;13.00;1.73;;;23.40;1.00;;;;;;5498800;26;20441;-87
2024/04/13 11:01:05;;;;;;;14.50;1.93;;;23.40;1.00;;;;;;5499101;26;20500;-87
2024/04/13 11:03:31;;;;;;;15.20;2.73;;;23.40;1.00;;;;;;5499299;26;20948;-86
2024/04/13 11:05:57;;;;;;;15.30;3.40;;;23.60;1.00;;;;;;5498540;26;20482;-87
2024/04/13 11:08:24;;;;;;;14.33;2.13;;;23.80;1.00;;;;;;5497265;26;20288;-87
2024/04/13 11:10:56;;;;;;;14.77;2.63;;;24.00;1.00;;;;;;5465036;26;20802;-87
2024/04/13 11:13:23;;;;;;;16.33;2.27;;;24.10;1.00;;;;;;5496404;26;20539;-86
2024/04/13 11:15:50;;;;;;;13.53;2.40;;;24.10;1.00;;;;;;5495715;26;20433;-86
2024/04/13 11:18:17;;;;;;;15.00;2.30;;;24.20;1.00;;;;;;5496637;26;20445;-83
2024/04/13 11:20:47;;;;;;;15.33;1.97;;;24.20;1.00;;;;;;5500530;26;20449;-84
2024/04/13 11:23:14;;;;;;;17.30;2.80;;;24.20;1.00;;;;;;5495933;26;20429;-82
2024/04/13 11:25:39;;;;;;;17.23;3.10;;;24.40;1.00;;;;;;5493877;26;20429;-83
2024/04/13 11:28:05;;;;;;;14.40;2.30;;;24.30;1.00;;;;;;5493988;26;20496;-82
2024/04/13 11:30:31;;;;;;;14.63;1.77;;;24.60;1.00;;;;;;5499739;26;20220;-85
2024/04/13 11:32:59;;;;;;;12.60;1.87;;;24.80;1.00;;;;;;5501502;26;20977;-85
2024/04/13 11:35:24;;;;;;;13.67;1.90;;;24.90;1.00;;;;;;5500728;26;20528;-86
2024/04/13 11:37:59;;;;;;;18.00;1.97;;;25.00;99.90;;;;;;5498608;26;20497;-86
2024/04/13 11:40:32;;;;;;;13.73;2.30;;;25.00;99.90;;;;;;5467558;26;20553;-86
2024/04/13 11:42:59;;;;;;;14.33;2.27;;;24.80;99.90;;;;;;5499424;26;20382;-85
2024/04/13 11:45:26;;;;;;;13.83;2.10;;;24.90;99.90;;;;;;5467470;26;20445;-84
2024/04/13 11:47:53;;;;;;;12.30;1.80;;;25.00;99.90;;;;;;5464549;26;20969;-83
2024/04/13 11:50:19;;;;;;;22.93;2.47;;;25.20;99.90;;;;;;5495545;26;20453;-84
2024/04/13 11:52:45;;;;;;;22.40;3.83;;;25.30;99.90;;;;;;5495535;26;20482;-86
2024/04/13 11:55:11;;;;;;;16.07;1.90;;;25.10;99.90;;;;;;5494389;26;20465;-83
2024/04/13 11:57:46;;;;;;;13.73;1.80;;;25.00;99.90;;;;;;5496519;26;20208;-85
2024/04/13 12:00:14;;;;;;;30.40;4.30;;;25.20;99.90;;;;;;5498548;26;20220;-86
2024/04/13 12:02:39;;;;;;;21.03;2.70;;;25.40;99.90;;;;;;5499225;26;20430;-87
2024/04/13 12:05:05;;;;;;;16.57;1.73;;;25.80;99.90;;;;;;5499215;26;20957;-85
2024/04/13 12:07:31;;;;;;;17.35;2.00;;;25.60;99.90;;;;;;5463931;26;20457;-86
2024/04/13 12:09:58;;;;;;;16.63;1.73;;;25.40;99.90;;;;;;5496480;26;20239;-85
2024/04/13 12:12:23;;;;;;;13.40;1.63;;;25.60;99.90;;;;;;5494741;26;20433;-83
2024/04/13 12:14:51;;;;;;;12.77;1.57;;;25.70;99.90;;;;;;5462047;26;20489;-84
2024/04/13 12:17:17;;;;;;;15.33;2.07;;;25.50;99.90;;;;;;5495513;26;20260;-84
2024/04/13 12:19:43;;;;;;;12.67;1.43;;;25.50;99.90;;;;;;5494641;26;20437;-84
2024/04/13 12:22:09;;;;;;;14.77;2.77;;;25.50;99.90;;;;;;5461974;26;20488;-83
2024/04/13 12:24:35;;;;;;;13.77;1.60;;;25.60;99.90;;;;;;5494953;26;20436;-83
2024/04/13 12:27:03;;;;;;;11.97;1.00;;;25.50;99.90;;;;;;5494137;26;20244;-82
2024/04/13 12:29:29;;;;;;;14.53;1.93;;;25.40;99.90;;;;;;5493703;26;20831;-83
2024/04/13 12:31:55;;;;;;;14.00;1.30;;;25.40;99.90;;;;;;5494129;26;20429;-83
2024/04/13 12:34:20;;;;;;;12.87;1.23;;;25.40;99.90;;;;;;5493417;26;20547;-83
2024/04/13 12:36:46;;;;;;;12.83;1.60;;;25.60;99.90;;;;;;5462058;26;20212;-83